DRT weather

Del Rio International Airport
Del Rio, Texas, United States

Public forecast

Using degrees Fahrenheit for public forecast. Weather courtesy of forecast.io.

Current aviation weather report (METAR) for Del Rio International Airport

Retrieved 2020/07/10 00:53 UTC (1 hour ago):

KDRT 100053Z AUTO 12010G20KT 10SM CLR 38/19 A2979 RMK AO2 SLP066 T03830189

Aviation forecast (TAF) for Del Rio International Airport

Retrieved 2020-07-10 00:22 UTC (2 hours ago):

TAF KDRT 092320Z 1000/1024 10008KT P6SM SKC FM101100 11009KT P6SM SCT025 TEMPO 1011/1015 BKN025 FM101600 13012G22KT P6SM FEW040